createdAt,value
2018-05-14T00:02:14.476Z,99060.08
2018-05-14T00:04:46.861Z,99057.17
2018-05-14T00:07:18.763Z,99054.45
2018-05-14T00:09:50.173Z,99056.66
2018-05-14T00:12:22.724Z,99049.56
2018-05-14T00:14:54.153Z,99045.17
2018-05-14T00:17:26.266Z,99041.82
2018-05-14T00:19:58.643Z,99041.98
2018-05-14T00:22:30.309Z,99033.74
2018-05-14T00:25:02.742Z,99035.98
2018-05-14T00:27:34.180Z,99037.64
2018-05-14T00:30:06.059Z,99037.30
2018-05-14T00:32:37.530Z,99034.64
2018-05-14T00:35:09.007Z,99022.75
2018-05-14T00:37:41.469Z,99022.14
2018-05-14T00:40:13.021Z,99011.06
2018-05-14T00:42:44.513Z,99021.02
2018-05-14T00:45:16.474Z,99020.39
2018-05-14T00:47:47.977Z,99032.77
2018-05-14T00:50:19.377Z,99041.48
2018-05-14T00:52:50.938Z,99045.42
2018-05-14T00:55:22.657Z,99034.99
2018-05-14T00:57:54.101Z,99033.69
2018-05-14T01:00:26.149Z,99029.41
2018-05-14T01:02:58.633Z,99040.16
2018-05-14T01:05:29.673Z,99036.07
2018-05-14T01:08:00.276Z,99033.52
2018-05-14T01:10:33.783Z,99037.42
2018-05-14T01:13:06.150Z,99032.32
2018-05-14T01:15:36.909Z,99034.53
2018-05-14T01:18:07.483Z,99028.39
2018-05-14T01:20:38.038Z,99055.73
2018-05-14T01:23:08.551Z,99018.31
2018-05-14T01:25:38.855Z,99015.09
2018-05-14T01:28:09.404Z,99014.47
2018-05-14T01:30:40.212Z,99014.39
2018-05-14T01:33:10.811Z,99019.99
2018-05-14T01:35:43.215Z,99014.14
2018-05-14T01:38:13.785Z,99005.48
2018-05-14T01:40:44.365Z,99000.69
2018-05-14T01:43:14.957Z,98995.60
2018-05-14T01:45:45.778Z,98998.67
2018-05-14T01:48:16.299Z,98987.57
2018-05-14T01:50:46.899Z,98991.59
2018-05-14T01:53:17.500Z,98987.22
2018-05-14T01:55:48.082Z,98984.43
2018-05-14T01:58:18.698Z,98981.39
2018-05-14T02:00:49.301Z,98984.39
2018-05-14T02:03:19.837Z,98978.45
2018-05-14T02:05:50.377Z,98980.39
2018-05-14T02:08:20.953Z,98984.44
2018-05-14T02:10:51.527Z,98979.99
2018-05-14T02:13:22.101Z,98970.48
2018-05-14T02:15:52.726Z,98968.66
2018-05-14T02:18:23.304Z,98960.87
2018-05-14T02:20:53.901Z,98950.89
2018-05-14T02:23:24.523Z,98944.16
2018-05-14T02:25:55.136Z,98948.59
2018-05-14T02:28:25.731Z,98946.23
2018-05-14T02:30:56.339Z,98945.02
2018-05-14T02:33:26.883Z,98936.53
2018-05-14T02:35:57.589Z,98931.55
2018-05-14T02:38:28.169Z,98935.17
2018-05-14T02:40:59.106Z,98937.92
2018-05-14T02:43:29.773Z,98938.89
2018-05-14T02:46:00.547Z,98935.16
2018-05-14T02:48:31.284Z,98942.67
2018-05-14T02:51:01.943Z,98931.52
2018-05-14T02:53:33.281Z,98928.27
2018-05-14T02:56:03.956Z,98921.20
2018-05-14T02:58:35.087Z,98921.51
2018-05-14T03:01:05.717Z,98911.69
2018-05-14T03:03:36.514Z,98908.72
2018-05-14T03:06:07.043Z,98903.69
2018-05-14T03:08:37.970Z,98897.48
2018-05-14T03:11:08.545Z,98898.27
2018-05-14T03:13:39.181Z,98901.50
2018-05-14T03:16:09.816Z,98900.48
2018-05-14T03:18:40.299Z,98904.41
2018-05-14T03:21:11.006Z,98895.94
2018-05-14T03:23:41.605Z,98893.72
2018-05-14T03:26:12.236Z,98883.41
2018-05-14T03:28:42.852Z,98887.56
2018-05-14T03:31:13.479Z,98907.66
2018-05-14T03:33:44.052Z,98909.11
2018-05-14T03:36:14.443Z,98917.47
2018-05-14T03:38:44.990Z,98918.28
2018-05-14T03:41:15.623Z,98931.90
2018-05-14T03:43:46.241Z,98942.16
2018-05-14T03:46:16.962Z,98949.09
2018-05-14T03:48:47.519Z,98961.66
2018-05-14T03:51:18.061Z,98971.59
2018-05-14T03:53:48.657Z,98987.38
2018-05-14T03:56:19.235Z,98992.25
2018-05-14T04:02:00.808Z,98994.19
2018-05-14T04:05:39.354Z,99005.88
2018-05-14T04:08:09.696Z,99009.53
2018-05-14T04:10:40.769Z,99007.75
2018-05-14T04:13:11.400Z,99011.67
2018-05-14T04:15:42.197Z,99014.68
2018-05-14T04:18:12.800Z,99018.98
2018-05-14T04:20:43.672Z,99021.13
2018-05-14T04:23:14.298Z,99016.34
2018-05-14T04:25:44.904Z,99023.31
2018-05-14T04:28:15.496Z,99025.05
2018-05-14T04:30:46.125Z,99037.83
2018-05-14T04:33:16.732Z,99033.67
2018-05-14T04:35:47.367Z,99034.36
2018-05-14T04:38:17.948Z,99034.70
2018-05-14T04:40:48.657Z,99033.48
2018-05-14T04:43:21.095Z,99029.33
2018-05-14T04:45:51.684Z,99023.80
2018-05-14T04:48:28.773Z,99030.16
2018-05-14T04:50:59.432Z,99031.48
2018-05-14T04:53:30.881Z,99023.91
2018-05-14T04:56:01.827Z,99025.19
2018-05-14T04:58:32.492Z,99023.77
2018-05-14T05:01:03.234Z,99027.19
2018-05-14T05:03:33.833Z,99037.56
2018-05-14T05:06:04.448Z,99037.02
2018-05-14T05:08:35.319Z,99035.55
2018-05-14T05:11:05.943Z,99039.87
2018-05-14T05:13:37.046Z,99035.77
2018-05-14T05:16:07.746Z,99042.60
2018-05-14T05:18:38.627Z,99036.66
2018-05-14T05:21:09.240Z,99047.33
2018-05-14T05:23:40.110Z,99040.29
2018-05-14T05:26:10.780Z,99034.58
2018-05-14T05:28:41.747Z,99040.16
2018-05-14T05:31:12.382Z,99038.17
2018-05-14T05:33:43.164Z,99045.21
2018-05-14T05:36:13.780Z,99054.30
2018-05-14T05:38:44.652Z,99051.33
2018-05-14T05:41:15.376Z,99055.56
2018-05-14T05:43:45.978Z,99055.47
2018-05-14T05:46:18.492Z,99055.16
2018-05-14T05:48:49.085Z,99052.48
2018-05-14T05:51:19.621Z,99051.17
2018-05-14T05:53:50.248Z,99057.17
2018-05-14T05:56:20.828Z,99063.69
2018-05-14T05:58:51.409Z,99053.98
2018-05-14T06:01:22.050Z,99047.73
2018-05-14T06:03:52.824Z,99053.05
2018-05-14T06:06:23.420Z,99073.30
2018-05-14T06:08:53.988Z,99077.01
2018-05-14T06:11:24.528Z,99079.11
2018-05-14T06:13:55.263Z,99080.39
2018-05-14T06:16:25.927Z,99081.47
2018-05-14T06:18:56.561Z,99082.85
2018-05-14T06:21:27.217Z,99087.40
2018-05-14T06:23:59.044Z,99095.58
2018-05-14T06:26:29.616Z,99105.11
2018-05-14T06:29:00.210Z,99111.84
2018-05-14T06:31:30.872Z,99121.75
2018-05-14T06:34:01.467Z,99117.67
2018-05-14T06:36:33.242Z,99110.98
2018-05-14T06:39:04.650Z,99106.83
2018-05-14T06:41:35.448Z,99107.38
2018-05-14T06:44:06.085Z,99103.82
2018-05-14T06:46:37.116Z,99099.11
2018-05-14T06:49:08.013Z,99101.77
2018-05-14T06:51:39.719Z,99104.91
2018-05-14T06:54:10.431Z,99112.38
2018-05-14T06:56:41.729Z,99107.30
2018-05-14T06:59:12.349Z,99116.30
2018-05-14T07:01:43.342Z,99116.87
2018-05-14T07:04:14.534Z,99111.26
2018-05-14T07:06:45.520Z,99119.49
2018-05-14T07:09:16.080Z,99111.48
2018-05-14T07:11:46.696Z,99117.70
2018-05-14T07:14:17.237Z,99122.14
2018-05-14T07:16:47.880Z,99122.42
2018-05-14T07:19:18.509Z,99110.46
2018-05-14T07:21:49.272Z,99120.52
2018-05-14T07:24:19.797Z,99117.77
2018-05-14T07:26:50.384Z,99120.94
2018-05-14T07:29:21.174Z,99116.78
2018-05-14T07:31:51.673Z,99121.08
2018-05-14T07:34:22.320Z,99117.78
2018-05-14T07:36:52.884Z,99126.02
2018-05-14T07:39:23.677Z,99128.70
2018-05-14T07:41:54.246Z,99131.25
2018-05-14T07:44:24.797Z,99137.31
2018-05-14T07:46:55.302Z,99137.67
2018-05-14T07:49:25.864Z,99157.39
2018-05-14T07:51:56.383Z,99142.88
2018-05-14T07:54:27.068Z,99144.34
2018-05-14T07:56:57.708Z,99138.77
2018-05-14T07:59:28.369Z,99143.77
2018-05-14T08:01:59.033Z,99142.16
2018-05-14T08:04:30.068Z,99143.39
2018-05-14T08:07:00.666Z,99142.80
2018-05-14T08:09:31.210Z,99142.75
2018-05-14T08:12:01.831Z,99149.02
2018-05-14T08:14:32.351Z,99144.59
2018-05-14T08:17:03.009Z,99150.44
2018-05-14T08:19:33.714Z,99146.22
2018-05-14T08:22:04.600Z,99149.06
2018-05-14T08:24:35.402Z,99158.61
2018-05-14T08:27:06.053Z,99155.45
2018-05-14T08:29:37.141Z,99155.41
2018-05-14T08:32:07.505Z,99149.09
2018-05-14T08:34:38.308Z,99143.72
2018-05-14T08:37:15.719Z,99149.84
2018-05-14T08:39:46.328Z,99144.98
2018-05-14T08:42:17.204Z,99142.26
2018-05-14T08:44:47.948Z,99149.27
2018-05-14T08:47:18.569Z,99148.63
2018-05-14T08:49:49.310Z,99149.89
2018-05-14T08:52:19.944Z,99154.48
2018-05-14T08:54:50.283Z,99156.09
2018-05-14T08:57:20.904Z,99164.40
2018-05-14T08:59:51.783Z,99168.69
2018-05-14T09:02:22.336Z,99160.93
2018-05-14T09:04:52.682Z,99168.03
2018-05-14T09:07:27.081Z,99174.34
2018-05-14T09:09:57.597Z,99168.05
2018-05-14T09:12:28.193Z,99168.82
2018-05-14T09:14:58.896Z,99172.63
2018-05-14T09:17:29.494Z,99166.73
2018-05-14T09:20:00.111Z,99178.73
2018-05-14T09:22:31.646Z,99173.85
2018-05-14T09:25:02.287Z,99183.17
2018-05-14T09:27:32.956Z,99180.98
2018-05-14T09:30:05.551Z,99184.05
2018-05-14T09:32:36.766Z,99185.04
2018-05-14T09:35:07.481Z,99182.95
2018-05-14T09:37:40.178Z,99191.05
2018-05-14T09:40:10.808Z,99193.22
2018-05-14T09:42:42.879Z,99195.40
2018-05-14T09:45:14.867Z,99192.88
2018-05-14T09:47:46.126Z,99196.00
2018-05-14T09:50:16.742Z,99192.37
2018-05-14T09:52:48.188Z,99188.17
2018-05-14T09:55:18.780Z,99184.95
2018-05-14T09:57:49.495Z,99182.32
2018-05-14T10:00:20.108Z,99184.02
2018-05-14T10:02:50.830Z,99190.77
2018-05-14T10:05:21.421Z,99176.41
2018-05-14T10:07:52.013Z,99183.72
2018-05-14T10:10:22.602Z,99173.22
2018-05-14T10:12:53.236Z,99172.92
2018-05-14T10:15:23.988Z,99174.07
2018-05-14T10:17:54.943Z,99170.55
2018-05-14T10:20:26.557Z,99164.85
2018-05-14T10:22:57.129Z,99168.78
2018-05-14T10:25:27.813Z,99163.70
2018-05-14T10:27:58.557Z,99158.33
2018-05-14T10:30:29.137Z,99158.95
2018-05-14T10:32:59.723Z,99158.64
2018-05-14T10:35:30.253Z,99155.46
2018-05-14T10:38:00.978Z,99146.45
2018-05-14T10:43:38.622Z,99141.08
2018-05-14T10:46:09.247Z,99147.14
2018-05-14T10:48:39.833Z,99136.53
2018-05-14T10:51:10.878Z,99134.54
2018-05-14T10:53:41.601Z,99143.94
2018-05-14T10:56:12.319Z,99140.36
2018-05-14T10:58:44.102Z,99141.98
2018-05-14T11:01:14.501Z,99137.64
2018-05-14T11:03:45.942Z,99133.70
2018-05-14T11:06:16.624Z,99134.38
2018-05-14T11:08:49.309Z,99136.05
2018-05-14T11:11:20.230Z,99137.83
2018-05-14T11:13:51.077Z,99131.61
2018-05-14T11:16:22.120Z,99126.97
2018-05-14T11:18:53.479Z,99129.30
2018-05-14T11:21:24.280Z,99126.44
2018-05-14T11:23:55.117Z,99119.73
2018-05-14T11:26:25.692Z,99122.04
2018-05-14T11:28:56.321Z,99116.16
2018-05-14T11:31:26.979Z,99112.77
2018-05-14T11:33:57.673Z,99121.23
2018-05-14T11:36:28.273Z,99117.38
2018-05-14T11:38:58.888Z,99127.39
2018-05-14T11:41:29.484Z,99126.63
2018-05-14T11:44:00.059Z,99126.62
2018-05-14T11:46:30.577Z,99119.84
2018-05-14T11:49:01.217Z,99117.47
2018-05-14T11:51:31.781Z,99116.76
2018-05-14T11:54:02.359Z,99111.70
2018-05-14T11:56:32.984Z,99116.72
2018-05-14T11:59:03.598Z,99113.51
2018-05-14T12:01:34.285Z,99114.97
2018-05-14T12:04:04.862Z,99110.38
2018-05-14T12:06:35.190Z,99114.08
2018-05-14T12:09:06.394Z,99114.55
2018-05-14T12:11:37.008Z,99111.55
2018-05-14T12:14:07.581Z,99110.41
2018-05-14T12:16:38.245Z,99109.78
2018-05-14T12:19:08.871Z,99108.86
2018-05-14T12:21:39.460Z,99109.05
2018-05-14T12:24:10.040Z,99102.52
2018-05-14T12:26:40.624Z,99105.76
2018-05-14T12:29:11.199Z,99099.51
2018-05-14T12:31:41.775Z,99101.51
2018-05-14T12:34:12.441Z,99096.94
2018-05-14T12:36:43.165Z,99089.68
2018-05-14T12:39:15.878Z,99097.48
2018-05-14T12:41:48.259Z,99088.78
2018-05-14T12:44:20.158Z,99080.39
2018-05-14T12:46:54.501Z,99076.70
2018-05-14T12:49:25.081Z,99082.69
2018-05-14T12:51:56.287Z,99083.77
2018-05-14T12:54:27.034Z,99078.16
2018-05-14T12:56:57.714Z,99079.40
2018-05-14T12:59:28.350Z,99072.16
2018-05-14T13:01:58.900Z,99069.71
2018-05-14T13:04:29.433Z,99071.95
2018-05-14T13:07:00.054Z,99058.54
2018-05-14T13:09:32.616Z,99059.19
2018-05-14T13:12:03.696Z,99057.33
2018-05-14T13:14:34.290Z,99066.03
2018-05-14T13:17:04.957Z,99051.27
2018-05-14T13:19:35.504Z,99057.56
2018-05-14T13:22:06.233Z,99050.48
2018-05-14T13:24:38.751Z,99058.04
2018-05-14T13:27:09.491Z,99075.98
2018-05-14T13:29:41.913Z,99092.67
2018-05-14T13:32:14.241Z,99088.23
2018-05-14T13:34:46.139Z,99078.81
2018-05-14T13:37:16.762Z,99046.27
2018-05-14T13:39:49.545Z,99065.06
2018-05-14T13:42:20.618Z,99060.73
2018-05-14T13:44:53.829Z,99063.59
2018-05-14T13:47:25.312Z,99062.11
2018-05-14T13:49:55.947Z,99071.52
2018-05-14T13:52:26.489Z,99068.28
2018-05-14T13:54:58.973Z,99058.03
2018-05-14T13:57:29.553Z,99051.47
2018-05-14T14:00:00.236Z,99052.45
2018-05-14T14:02:32.041Z,99058.28
2018-05-14T14:05:02.793Z,99065.73
2018-05-14T14:07:33.476Z,99078.23
2018-05-14T14:10:04.044Z,99081.05
2018-05-14T14:12:34.674Z,99083.71
2018-05-14T14:15:06.298Z,99076.29
2018-05-14T14:17:36.978Z,99086.88
2018-05-14T14:20:07.729Z,99075.03
2018-05-14T14:22:38.308Z,99053.77
2018-05-14T14:25:08.958Z,99059.11
2018-05-14T14:27:40.516Z,99055.17
2018-05-14T14:30:12.556Z,99070.13
2018-05-14T14:32:43.734Z,99077.42
2018-05-14T14:35:14.465Z,99080.56
2018-05-14T14:37:45.657Z,99086.41
2018-05-14T14:40:16.297Z,99086.41
2018-05-14T14:42:48.746Z,99090.05
2018-05-14T14:45:19.977Z,99081.83
2018-05-14T14:47:51.863Z,99073.22
2018-05-14T14:50:24.294Z,99082.03
2018-05-14T14:52:55.074Z,99078.34
2018-05-14T14:55:25.725Z,99073.72
2018-05-14T14:57:56.481Z,99068.19
2018-05-14T15:00:27.313Z,99074.85
2018-05-14T15:02:57.845Z,99086.76
2018-05-14T15:05:28.635Z,99103.97
2018-05-14T15:07:59.353Z,99101.03
2018-05-14T15:10:29.968Z,99090.61
2018-05-14T15:13:00.575Z,99087.72
2018-05-14T15:15:31.188Z,99087.01
2018-05-14T15:18:01.781Z,99089.94
2018-05-14T15:20:32.168Z,99095.11
2018-05-14T15:23:02.801Z,99089.07
2018-05-14T15:25:33.408Z,99094.37
2018-05-14T15:28:04.036Z,99092.75
2018-05-14T15:30:34.563Z,99092.86
2018-05-14T15:33:05.156Z,99101.09
2018-05-14T15:35:35.768Z,99105.47
2018-05-14T15:38:06.366Z,99094.48
2018-05-14T15:40:36.944Z,99094.30
2018-05-14T15:43:07.598Z,99098.16
2018-05-14T15:45:38.199Z,99096.51
2018-05-14T15:48:08.750Z,99087.36
2018-05-14T15:50:39.386Z,99099.03
2018-05-14T15:53:10.023Z,99092.73
2018-05-14T15:55:40.638Z,99087.97
2018-05-14T15:58:11.314Z,99085.66
2018-05-14T16:00:42.222Z,99088.24
2018-05-14T16:03:12.756Z,99081.05
2018-05-14T16:05:43.384Z,99083.83
2018-05-14T16:08:13.918Z,99080.28
2018-05-14T16:10:44.525Z,99086.02
2018-05-14T16:13:15.084Z,99086.25
2018-05-14T16:15:45.637Z,99082.40
2018-05-14T16:18:16.137Z,99077.38
2018-05-14T16:20:46.841Z,99074.41
2018-05-14T16:23:17.505Z,99069.77
2018-05-14T16:25:48.058Z,99076.14
2018-05-14T16:28:18.613Z,99076.74
2018-05-14T16:30:49.171Z,99077.48
2018-05-14T16:33:19.855Z,99084.06
2018-05-14T16:35:50.515Z,99079.33
2018-05-14T16:38:21.115Z,99085.98
2018-05-14T16:40:52.288Z,99082.70
2018-05-14T16:43:22.968Z,99086.05
2018-05-14T16:45:53.641Z,99088.77
2018-05-14T16:48:24.209Z,99083.66
2018-05-14T16:50:54.851Z,99087.55
2018-05-14T16:53:25.442Z,99088.42
2018-05-14T16:55:56.108Z,99087.30
2018-05-14T16:58:30.328Z,99080.34
2018-05-14T17:01:04.895Z,99085.03
2018-05-14T17:03:35.616Z,99099.81
2018-05-14T17:06:06.855Z,99087.23
2018-05-14T17:08:37.381Z,99091.80
2018-05-14T17:11:08.614Z,99091.63
2018-05-14T17:13:39.220Z,99093.77
2018-05-14T17:16:10.033Z,99097.59
2018-05-14T17:18:41.512Z,99100.44
2018-05-14T17:21:12.181Z,99103.50
2018-05-14T17:23:43.192Z,99111.34
2018-05-14T17:26:16.068Z,99112.94
2018-05-14T17:28:46.721Z,99117.21
2018-05-14T17:31:19.091Z,99115.42
2018-05-14T17:33:49.647Z,99113.15
2018-05-14T17:36:20.295Z,99116.40
2018-05-14T17:38:52.908Z,99110.57
2018-05-14T17:41:23.888Z,99115.48
2018-05-14T17:43:54.389Z,99111.18
2018-05-14T17:46:25.845Z,99113.45
2018-05-14T17:48:58.202Z,99125.60
2018-05-14T17:51:28.788Z,99118.36
2018-05-14T17:53:59.610Z,99117.80
2018-05-14T17:56:30.464Z,99123.27
2018-05-14T17:59:02.082Z,99121.98
2018-05-14T18:01:32.787Z,99122.09
2018-05-14T18:04:05.294Z,99133.22
2018-05-14T18:06:37.834Z,99122.73
2018-05-14T18:09:08.563Z,99127.83
2018-05-14T18:11:39.976Z,99134.89
2018-05-14T18:14:11.796Z,99136.03
2018-05-14T18:16:43.225Z,99137.56
2018-05-14T18:19:14.738Z,99138.93
2018-05-14T18:21:48.324Z,99138.87
2018-05-14T18:24:20.935Z,99140.66
2018-05-14T18:26:52.448Z,99145.62
2018-05-14T18:29:27.963Z,99151.77
2018-05-14T18:32:03.693Z,99150.17
2018-05-14T18:34:39.309Z,99147.66
2018-05-14T18:37:11.197Z,99158.45
2018-05-14T18:39:42.678Z,99162.28
2018-05-14T18:42:14.246Z,99160.31
2018-05-14T18:44:45.695Z,99168.11
2018-05-14T18:47:17.143Z,99161.80
2018-05-14T18:49:48.711Z,99173.47
2018-05-14T18:52:21.064Z,99178.39
2018-05-14T18:54:52.569Z,99179.63
2018-05-14T18:57:25.021Z,99182.39
2018-05-14T18:59:56.816Z,99189.09
2018-05-14T19:02:28.467Z,99193.16
2018-05-14T19:04:59.939Z,99188.84
2018-05-14T19:07:31.387Z,99186.95
2018-05-14T19:10:06.822Z,99195.39
2018-05-14T19:12:38.296Z,99200.13
2018-05-14T19:15:14.901Z,99200.69
2018-05-14T19:17:53.561Z,99205.92
2018-05-14T19:20:25.999Z,99203.80
2018-05-14T19:23:02.337Z,99212.91
2018-05-14T19:25:35.618Z,99217.20
2018-05-14T19:28:11.109Z,99218.72
2018-05-14T19:30:43.518Z,99225.39
2018-05-14T19:33:20.735Z,99222.65
2018-05-14T19:36:00.339Z,99230.22
2018-05-14T19:38:31.796Z,99237.72
2018-05-14T19:41:03.423Z,99238.90
2018-05-14T19:43:34.833Z,99241.31
2018-05-14T19:46:06.229Z,99238.75
2018-05-14T19:48:37.705Z,99247.77
2018-05-14T19:51:09.427Z,99251.80
2018-05-14T19:53:41.278Z,99259.88
2018-05-14T19:56:13.417Z,99254.16
2018-05-14T19:58:45.081Z,99255.09
2018-05-14T20:01:17.664Z,99257.58
2018-05-14T20:03:49.359Z,99266.91
2018-05-14T20:06:23.336Z,99269.11
2018-05-14T20:08:54.876Z,99269.25
2018-05-14T20:11:26.782Z,99268.75
2018-05-14T20:13:58.190Z,99275.63
2018-05-14T20:16:29.718Z,99273.16
2018-05-14T20:19:01.170Z,99273.19
2018-05-14T20:21:32.580Z,99282.37
2018-05-14T20:24:10.400Z,99287.34
2018-05-14T20:26:42.053Z,99282.19
2018-05-14T20:29:14.780Z,99283.05
2018-05-14T20:31:46.399Z,99293.42
2018-05-14T20:34:19.553Z,99290.12
2018-05-14T20:36:51.350Z,99296.67
2018-05-14T20:39:23.631Z,99301.25
2018-05-14T20:42:01.523Z,99302.67
2018-05-14T20:44:33.008Z,99312.52
2018-05-14T20:47:04.469Z,99309.73
2018-05-14T20:49:36.014Z,99311.70
2018-05-14T20:52:08.355Z,99318.11
2018-05-14T20:54:41.002Z,99319.14
2018-05-14T20:57:12.920Z,99332.09
2018-05-14T20:59:44.960Z,99319.21
2018-05-14T21:02:18.509Z,99323.47
2018-05-14T21:04:50.004Z,99320.55
2018-05-14T21:07:22.743Z,99319.19
2018-05-14T21:09:54.292Z,99320.02
2018-05-14T21:12:26.727Z,99323.19
2018-05-14T21:14:59.128Z,99324.06
2018-05-14T21:17:30.588Z,99324.05
2018-05-14T21:20:02.050Z,99321.81
2018-05-14T21:22:33.460Z,99327.11
2018-05-14T21:25:04.922Z,99320.16
2018-05-14T21:27:36.382Z,99325.15
2018-05-14T21:30:07.848Z,99328.06
2018-05-14T21:32:39.308Z,99327.46
2018-05-14T21:35:10.712Z,99329.37
2018-05-14T21:37:41.862Z,99328.86
2018-05-14T21:40:13.806Z,99324.77
2018-05-14T21:42:46.404Z,99332.03
2018-05-14T21:45:18.655Z,99332.82
2018-05-14T21:47:50.638Z,99379.18
2018-05-14T21:50:23.801Z,99340.13
2018-05-14T21:52:55.375Z,99339.14
2018-05-14T21:55:26.826Z,99337.39
2018-05-14T21:57:58.056Z,99339.35
2018-05-14T22:00:29.175Z,99350.11
2018-05-14T22:03:00.378Z,99347.13
2018-05-14T22:21:22.757Z,99332.16
2018-05-14T22:23:54.507Z,99341.55
2018-05-14T22:26:26.278Z,99338.84
2018-05-14T22:28:58.103Z,99343.42
2018-05-14T22:31:29.472Z,99335.00
2018-05-14T22:34:00.813Z,99341.62
2018-05-14T22:36:34.947Z,99348.08
2018-05-14T22:39:06.862Z,99354.03
2018-05-14T22:41:40.450Z,99348.94
2018-05-14T22:44:11.966Z,99353.41
2018-05-14T22:46:43.575Z,99349.67
2018-05-14T22:49:15.954Z,99350.27
2018-05-14T22:51:47.488Z,99351.47
2018-05-14T22:54:28.649Z,99349.28
2018-05-14T22:56:59.927Z,99354.60
2018-05-14T22:59:32.626Z,99349.02
2018-05-14T23:02:04.055Z,99350.23
2018-05-14T23:04:35.400Z,99352.43
2018-05-14T23:07:08.003Z,99352.22
2018-05-14T23:09:40.290Z,99343.43
2018-05-14T23:12:11.782Z,99348.80
2018-05-14T23:14:47.120Z,99345.09
2018-05-14T23:17:20.731Z,99343.42
2018-05-14T23:19:52.124Z,99338.83
2018-05-14T23:22:33.605Z,99333.83
2018-05-14T23:25:05.355Z,99334.15
2018-05-14T23:27:38.341Z,99328.82
2018-05-14T23:30:09.921Z,99327.03
2018-05-14T23:32:42.940Z,99334.58
2018-05-14T23:35:15.176Z,99328.38
2018-05-14T23:37:49.837Z,99325.53
2018-05-14T23:40:22.029Z,99328.88
2018-05-14T23:42:54.438Z,99324.34
2018-05-14T23:45:33.130Z,99322.99
2018-05-14T23:48:06.046Z,99319.66
2018-05-14T23:50:37.706Z,99316.12
2018-05-14T23:53:09.319Z,99323.81
2018-05-14T23:55:40.684Z,99311.77
2018-05-14T23:58:12.035Z,99315.84
